Time,TemperatureF,DewpointF,PressureIn,WindDirection,WindDirectionDegrees,WindSpeedMPH,WindSpeedGustMPH,Humidity,HourlyPrecipIn,Conditions,Clouds,dailyrainin,SoftwareType,DateUTC
2013-05-19 04:23:00,49.6,34.2,29.94,North,-999,0.0,0.0,55,0.00,,,-99.99,FreeWX 2.04,2013-05-19 08:23:00,
2013-05-19 06:30:00,50.5,35.1,29.94,North,-999,0.0,0.0,55,0.00,,,-99.99,FreeWX 2.04,2013-05-19 10:30:00,
2013-05-19 06:35:00,50.5,35.1,29.94,North,-999,0.0,0.0,55,0.00,,,-99.99,FreeWX 2.04,2013-05-19 10:35:00,
2013-05-19 06:40:00,50.5,34.5,29.94,North,-999,0.0,0.0,54,0.00,,,-99.99,FreeWX 2.04,2013-05-19 10:40:00,
2013-05-19 06:45:00,50.5,35.1,29.94,North,-999,0.0,0.0,55,0.00,,,-99.99,FreeWX 2.04,2013-05-19 10:45:00,
2013-05-19 06:50:00,50.9,35.2,29.94,North,-999,0.0,0.0,55,0.00,,,-99.99,FreeWX 2.04,2013-05-19 10:50:00,
2013-05-19 06:55:00,51.3,35.6,29.94,North,-999,0.0,0.0,55,0.00,,,-99.99,FreeWX 2.04,2013-05-19 10:55:00,
2013-05-19 07:00:00,51.6,36.0,29.94,North,-999,0.0,0.0,55,0.00,,,-99.99,FreeWX 2.04,2013-05-19 11:00:00,
2013-05-19 07:05:00,52.0,36.3,29.94,North,-999,0.0,0.0,55,0.00,,,-99.99,FreeWX 2.04,2013-05-19 11:05:00,
2013-05-19 07:10:00,52.0,35.8,29.94,North,-999,0.0,0.0,54,0.00,,,-99.99,FreeWX 2.04,2013-05-19 11:10:00,
2013-05-19 07:15:00,52.0,35.4,29.94,North,-999,0.0,0.0,53,0.00,,,-99.99,FreeWX 2.04,2013-05-19 11:15:00,
2013-05-19 07:20:00,52.0,34.9,29.94,North,-999,0.0,0.0,52,0.00,,,-99.99,FreeWX 2.04,2013-05-19 11:20:00,
2013-05-19 07:25:00,52.0,34.9,29.94,North,-999,0.0,0.0,52,0.00,,,-99.99,FreeWX 2.04,2013-05-19 11:25:00,
2013-05-19 07:30:00,52.0,34.9,29.94,North,-999,0.0,0.0,52,0.00,,,-99.99,FreeWX 2.04,2013-05-19 11:30:00,
2013-05-19 07:35:00,51.6,34.2,29.97,North,-999,0.0,0.0,51,0.00,,,-99.99,FreeWX 2.04,2013-05-19 11:35:00,
2013-05-19 07:40:00,51.8,34.3,29.97,North,-999,0.0,0.0,51,0.00,,,-99.99,FreeWX 2.04,2013-05-19 11:40:00,
2013-05-19 07:45:00,52.7,35.6,29.97,North,-999,0.0,0.0,52,0.00,,,-99.99,FreeWX 2.04,2013-05-19 11:45:00,
2013-05-19 07:50:00,54.3,38.1,29.97,North,-999,0.0,0.0,54,0.00,,,-99.99,FreeWX 2.04,2013-05-19 11:50:00,
2013-05-19 07:55:00,55.8,37.4,29.97,North,-999,0.0,0.0,50,0.00,,,-99.99,FreeWX 2.04,2013-05-19 11:55:00,
2013-05-19 08:00:00,57.0,37.0,29.97,North,-999,0.0,0.0,47,0.00,,,-99.99,FreeWX 2.04,2013-05-19 12:00:00,
2013-05-19 08:05:00,57.9,35.6,29.94,North,-999,0.0,0.0,43,0.00,,,-99.99,FreeWX 2.04,2013-05-19 12:05:00,
2013-05-19 08:10:00,57.7,30.9,29.94,North,-999,0.0,0.0,36,0.00,,,-99.99,FreeWX 2.04,2013-05-19 12:10:00,
2013-05-19 08:15:00,57.7,30.2,29.94,North,-999,0.0,0.0,35,0.00,,,-99.99,FreeWX 2.04,2013-05-19 12:15:00,
2013-05-19 08:20:00,57.9,29.7,29.94,North,-999,0.0,4.0,34,0.00,,,-99.99,FreeWX 2.04,2013-05-19 12:20:00,
2013-05-19 08:25:00,58.1,29.8,29.94,North,-999,0.0,0.0,34,0.00,,,-99.99,FreeWX 2.04,2013-05-19 12:25:00,
2013-05-19 08:30:00,58.6,30.4,29.94,North,-999,0.0,0.0,34,0.00,,,-99.99,FreeWX 2.04,2013-05-19 12:30:00,
2013-05-19 08:35:00,59.2,30.9,29.94,North,-999,0.0,0.0,34,0.00,,,-99.99,FreeWX 2.04,2013-05-19 12:35:00,
2013-05-19 08:40:00,59.5,31.1,29.94,North,-999,0.0,0.0,34,0.00,,,-99.99,FreeWX 2.04,2013-05-19 12:40:00,
2013-05-19 08:45:00,59.4,30.2,29.94,North,-999,0.0,4.0,33,0.00,,,-99.99,FreeWX 2.04,2013-05-19 12:45:00,
2013-05-19 08:50:00,59.2,29.3,29.94,North,-999,0.0,3.6,32,0.00,,,-99.99,FreeWX 2.04,2013-05-19 12:50:00,
2013-05-19 08:55:00,59.2,28.6,29.94,North,-999,0.0,4.5,31,0.00,,,-99.99,FreeWX 2.04,2013-05-19 12:55:00,
2013-05-19 09:00:00,59.4,28.8,29.94,ESE,102,1.0,4.0,31,0.00,,,-99.99,FreeWX 2.04,2013-05-19 13:00:00,
2013-05-19 09:05:00,61.0,32.4,29.94,North,-999,0.0,0.0,34,0.00,,,-99.99,FreeWX 2.04,2013-05-19 13:05:00,
2013-05-19 09:10:00,63.0,31.8,29.94,North,-999,0.0,0.0,31,0.00,,,-99.99,FreeWX 2.04,2013-05-19 13:10:00,
2013-05-19 09:15:00,63.9,28.2,29.94,North,-999,0.0,0.0,26,0.00,,,-99.99,FreeWX 2.04,2013-05-19 13:15:00,
2013-05-19 09:20:00,65.1,28.4,29.94,North,-999,0.0,0.0,25,0.00,,,-99.99,FreeWX 2.04,2013-05-19 13:20:00,
2013-05-19 09:25:00,66.0,27.1,29.94,North,-999,0.0,0.0,23,0.00,,,-99.99,FreeWX 2.04,2013-05-19 13:25:00,
2013-05-19 09:30:00,66.6,27.7,29.94,North,-999,0.0,3.6,23,0.00,,,-99.99,FreeWX 2.04,2013-05-19 13:30:00,
2013-05-19 09:35:00,66.7,24.4,29.94,North,-999,0.0,4.0,20,0.00,,,-99.99,FreeWX 2.04,2013-05-19 13:35:00,
2013-05-19 09:40:00,67.3,27.1,29.94,SSE,154,1.0,3.6,22,0.00,,,-99.99,FreeWX 2.04,2013-05-19 13:40:00,
2013-05-19 09:45:00,68.4,28.0,29.94,North,-999,0.0,4.0,22,0.00,,,-99.99,FreeWX 2.04,2013-05-19 13:45:00,
2013-05-19 09:50:00,68.9,26.2,29.94,SSE,162,1.0,4.5,20,0.00,,,-99.99,FreeWX 2.04,2013-05-19 13:50:00,
2013-05-19 09:55:00,67.3,24.8,29.94,ESE,119,1.0,4.0,20,0.00,,,-99.99,FreeWX 2.04,2013-05-19 13:55:00,
2013-05-19 10:00:00,67.3,24.8,29.94,ESE,103,1.0,4.0,20,0.00,,,-99.99,FreeWX 2.04,2013-05-19 14:00:00,
2013-05-19 10:05:00,68.9,25.0,29.94,North,-999,0.0,4.5,19,0.00,,,-99.99,FreeWX 2.04,2013-05-19 14:05:00,
2013-05-19 10:10:00,68.9,25.0,29.94,North,-999,0.0,4.5,19,0.00,,,-99.99,FreeWX 2.04,2013-05-19 14:10:00,
2013-05-19 10:15:00,70.3,23.5,29.94,South,177,1.0,4.5,17,0.00,,,-99.99,FreeWX 2.04,2013-05-19 14:15:00,
2013-05-19 10:20:00,71.2,22.8,29.94,South,185,2.0,5.4,16,0.00,,,-99.99,FreeWX 2.04,2013-05-19 14:20:00,
2013-05-19 10:25:00,72.0,23.4,29.94,South,184,1.0,3.6,16,0.00,,,-99.99,FreeWX 2.04,2013-05-19 14:25:00,
2013-05-19 10:30:00,73.0,24.3,29.94,North,-999,0.0,3.6,16,0.00,,,-99.99,FreeWX 2.04,2013-05-19 14:30:00,
2013-05-19 10:35:00,72.9,24.1,29.91,SSE,162,1.0,4.0,16,0.00,,,-99.99,FreeWX 2.04,2013-05-19 14:35:00,
2013-05-19 10:40:00,72.5,23.7,29.91,SE,146,2.0,5.4,16,0.00,,,-99.99,FreeWX 2.04,2013-05-19 14:40:00,
2013-05-19 10:45:00,71.1,22.6,29.91,SE,134,2.0,4.5,16,0.00,,,-99.99,FreeWX 2.04,2013-05-19 14:45:00,
2013-05-19 10:50:00,68.4,21.9,29.91,ESE,117,3.0,6.7,17,0.00,,,-99.99,FreeWX 2.04,2013-05-19 14:50:00,
2013-05-19 10:55:00,67.3,21.0,29.91,ESE,105,3.0,5.8,17,0.00,,,-99.99,FreeWX 2.04,2013-05-19 14:55:00,
2013-05-19 11:00:00,67.1,20.8,29.91,East,91,2.0,6.3,17,0.00,,,-99.99,FreeWX 2.04,2013-05-19 15:00:00,
2013-05-19 11:05:00,67.1,24.6,29.91,ESE,115,2.0,4.5,20,0.00,,,-99.99,FreeWX 2.04,2013-05-19 15:05:00,
2013-05-19 11:10:00,69.4,25.3,29.91,South,169,2.0,5.4,19,0.00,,,-99.99,FreeWX 2.04,2013-05-19 15:10:00,
2013-05-19 11:15:00,70.2,23.4,29.91,South,172,2.0,5.4,17,0.00,,,-99.99,FreeWX 2.04,2013-05-19 15:15:00,
2013-05-19 11:20:00,70.0,23.2,29.91,SSE,151,1.0,4.0,17,0.00,,,-99.99,FreeWX 2.04,2013-05-19 15:20:00,
2013-05-19 11:25:00,70.3,23.5,29.91,SE,145,1.0,4.9,17,0.00,,,-99.99,FreeWX 2.04,2013-05-19 15:25:00,
2013-05-19 11:30:00,68.4,21.9,29.91,SE,132,3.0,5.4,17,0.00,,,-99.99,FreeWX 2.04,2013-05-19 15:30:00,
2013-05-19 11:35:00,68.2,21.7,29.91,SE,129,3.0,4.5,17,0.00,,,-99.99,FreeWX 2.04,2013-05-19 15:35:00,
2013-05-19 11:40:00,68.0,21.6,29.91,SE,141,2.0,5.4,17,0.00,,,-99.99,FreeWX 2.04,2013-05-19 15:40:00,
2013-05-19 11:45:00,68.4,25.7,29.91,SSE,162,1.0,4.5,20,0.00,,,-99.99,FreeWX 2.04,2013-05-19 15:45:00,
2013-05-19 11:50:00,68.2,21.7,29.91,SSE,154,2.0,5.4,17,0.00,,,-99.99,FreeWX 2.04,2013-05-19 15:50:00,
2013-05-19 11:55:00,69.4,25.3,29.91,SSE,168,1.0,4.9,19,0.00,,,-99.99,FreeWX 2.04,2013-05-19 15:55:00,
2013-05-19 12:00:00,70.7,22.3,29.91,SSW,205,1.0,4.9,16,0.00,,,-99.99,FreeWX 2.04,2013-05-19 16:00:00,
2013-05-19 12:05:00,71.6,23.0,29.91,SSW,200,2.0,4.9,16,0.00,,,-99.99,FreeWX 2.04,2013-05-19 16:05:00,
2013-05-19 12:10:00,71.2,22.8,29.91,South,171,2.0,4.0,16,0.00,,,-99.99,FreeWX 2.04,2013-05-19 16:10:00,
2013-05-19 12:15:00,69.3,22.6,29.91,SE,130,2.0,7.4,17,0.00,,,-99.99,FreeWX 2.04,2013-05-19 16:15:00,
2013-05-19 12:20:00,68.4,21.9,29.91,SE,128,3.0,5.4,17,0.00,,,-99.99,FreeWX 2.04,2013-05-19 16:20:00,
2013-05-19 12:25:00,68.2,25.5,29.91,SE,144,2.0,5.8,20,0.00,,,-99.99,FreeWX 2.04,2013-05-19 16:25:00,
2013-05-19 12:30:00,69.1,25.2,29.91,SSE,161,2.0,4.9,19,0.00,,,-99.99,FreeWX 2.04,2013-05-19 16:30:00,
2013-05-19 12:35:00,69.8,23.0,29.88,SSE,158,2.0,4.9,17,0.00,,,-99.99,FreeWX 2.04,2013-05-19 16:35:00,
2013-05-19 12:40:00,68.5,21.9,29.88,SE,139,2.0,5.4,17,0.00,,,-99.99,FreeWX 2.04,2013-05-19 16:40:00,
2013-05-19 12:45:00,67.8,25.3,29.88,SE,125,3.0,6.3,20,0.00,,,-99.99,FreeWX 2.04,2013-05-19 16:45:00,
2013-05-19 12:50:00,66.9,24.6,29.91,SE,127,3.0,5.4,20,0.00,,,-99.99,FreeWX 2.04,2013-05-19 16:50:00,
2013-05-19 12:55:00,67.3,27.1,29.91,SE,141,2.0,4.5,22,0.00,,,-99.99,FreeWX 2.04,2013-05-19 16:55:00,
2013-05-19 13:00:00,69.1,28.6,29.91,SSE,161,2.0,4.9,22,0.00,,,-99.99,FreeWX 2.04,2013-05-19 17:00:00,
2013-05-19 13:05:00,69.6,25.5,29.91,South,173,2.0,4.5,19,0.00,,,-99.99,FreeWX 2.04,2013-05-19 17:05:00,
2013-05-19 13:10:00,70.7,26.4,29.91,South,184,2.0,4.9,19,0.00,,,-99.99,FreeWX 2.04,2013-05-19 17:10:00,
2013-05-19 13:15:00,72.0,27.5,29.91,SSW,196,2.0,4.9,19,0.00,,,-99.99,FreeWX 2.04,2013-05-19 17:15:00,
2013-05-19 13:20:00,72.1,23.5,29.88,SSW,199,2.0,4.9,16,0.00,,,-99.99,FreeWX 2.04,2013-05-19 17:20:00,
2013-05-19 13:25:00,72.1,23.5,29.88,South,179,2.0,4.9,16,0.00,,,-99.99,FreeWX 2.04,2013-05-19 17:25:00,
2013-05-19 13:30:00,69.3,22.6,29.88,SE,133,3.0,6.3,17,0.00,,,-99.99,FreeWX 2.04,2013-05-19 17:30:00,
2013-05-19 13:35:00,67.8,25.3,29.88,ESE,115,3.0,5.8,20,0.00,,,-99.99,FreeWX 2.04,2013-05-19 17:35:00,
2013-05-19 13:40:00,68.7,28.4,29.88,SSE,156,2.0,4.9,22,0.00,,,-99.99,FreeWX 2.04,2013-05-19 17:40:00,
2013-05-19 13:46:00,71.1,26.8,29.88,South,181,2.0,5.8,19,0.00,,,-99.99,FreeWX 2.04,2013-05-19 17:46:00,
2013-05-19 13:51:00,71.6,27.1,29.88,South,186,3.0,5.8,19,0.00,,,-99.99,FreeWX 2.04,2013-05-19 17:51:00,
2013-05-19 13:56:00,71.8,23.2,29.88,South,183,3.0,4.9,16,0.00,,,-99.99,FreeWX 2.04,2013-05-19 17:56:00,
2013-05-19 14:01:00,72.1,27.7,29.88,South,173,3.0,4.9,19,0.00,,,-99.99,FreeWX 2.04,2013-05-19 18:01:00,
2013-05-19 14:06:00,72.0,27.5,29.88,South,169,3.0,5.8,19,0.00,,,-99.99,FreeWX 2.04,2013-05-19 18:06:00,
2013-05-19 14:11:00,72.1,23.5,29.88,SSE,168,3.0,5.8,16,0.00,,,-99.99,FreeWX 2.04,2013-05-19 18:11:00,
2013-05-19 14:16:00,72.3,27.7,29.88,South,170,3.0,5.8,19,0.00,,,-99.99,FreeWX 2.04,2013-05-19 18:16:00,
2013-05-19 14:21:00,73.4,27.3,29.85,South,174,3.0,5.4,18,0.00,,,-99.99,FreeWX 2.04,2013-05-19 18:21:00,
2013-05-19 14:26:00,73.6,27.5,29.85,South,174,3.0,5.8,18,0.00,,,-99.99,FreeWX 2.04,2013-05-19 18:26:00,
2013-05-19 14:31:00,73.9,27.7,29.85,South,180,3.0,5.8,18,0.00,,,-99.99,FreeWX 2.04,2013-05-19 18:31:00,
2013-05-19 14:36:00,73.4,27.3,29.88,South,178,3.0,5.8,18,0.00,,,-99.99,FreeWX 2.04,2013-05-19 18:36:00,
2013-05-19 14:41:00,74.7,28.4,29.88,South,183,2.0,4.5,18,0.00,,,-99.99,FreeWX 2.04,2013-05-19 18:41:00,
2013-05-19 14:46:00,75.6,29.1,29.88,South,186,2.0,5.8,18,0.00,,,-99.99,FreeWX 2.04,2013-05-19 18:46:00,
2013-05-19 14:51:00,75.9,25.0,29.88,South,179,2.0,5.4,15,0.00,,,-99.99,FreeWX 2.04,2013-05-19 18:51:00,
2013-05-19 14:56:00,76.3,25.2,29.88,South,184,3.0,5.4,15,0.00,,,-99.99,FreeWX 2.04,2013-05-19 18:56:00,
2013-05-19 15:01:00,76.6,25.5,29.88,South,179,3.0,5.8,15,0.00,,,-99.99,FreeWX 2.04,2013-05-19 19:01:00,
2013-05-19 15:06:00,76.5,25.3,29.88,South,174,2.0,4.5,15,0.00,,,-99.99,FreeWX 2.04,2013-05-19 19:06:00,
2013-05-19 15:11:00,75.4,24.4,29.88,SSE,165,2.0,4.9,15,0.00,,,-99.99,FreeWX 2.04,2013-05-19 19:11:00,
2013-05-19 15:16:00,73.9,25.0,29.88,SE,146,2.0,4.5,16,0.00,,,-99.99,FreeWX 2.04,2013-05-19 19:16:00,
2013-05-19 15:21:00,74.5,28.2,29.88,SE,141,1.0,3.6,18,0.00,,,-99.99,FreeWX 2.04,2013-05-19 19:21:00,
2013-05-19 15:26:00,75.7,29.3,29.88,North,-999,0.0,4.5,18,0.00,,,-99.99,FreeWX 2.04,2013-05-19 19:26:00,
2013-05-19 15:31:00,77.2,30.4,29.88,North,-999,0.0,4.0,18,0.00,,,-99.99,FreeWX 2.04,2013-05-19 19:31:00,
2013-05-19 15:36:00,78.1,26.6,29.88,North,-999,0.0,4.5,15,0.00,,,-99.99,FreeWX 2.04,2013-05-19 19:36:00,
2013-05-19 15:41:00,78.6,27.1,29.88,North,-999,0.0,4.5,15,0.00,,,-99.99,FreeWX 2.04,2013-05-19 19:41:00,
2013-05-19 15:46:00,77.7,26.4,29.88,SSE,155,1.0,4.5,15,0.00,,,-99.99,FreeWX 2.04,2013-05-19 19:46:00,
2013-05-19 15:51:00,73.6,24.6,29.88,SE,144,3.0,4.9,16,0.00,,,-99.99,FreeWX 2.04,2013-05-19 19:51:00,
2013-05-19 15:56:00,72.3,27.7,29.88,SSE,161,2.0,5.8,19,0.00,,,-99.99,FreeWX 2.04,2013-05-19 19:56:00,
2013-05-19 16:01:00,71.6,29.7,29.88,SE,142,2.0,4.5,21,0.00,,,-99.99,FreeWX 2.04,2013-05-19 20:01:00,
2013-05-19 16:06:00,72.3,30.2,29.85,ESE,118,2.0,5.8,21,0.00,,,-99.99,FreeWX 2.04,2013-05-19 20:06:00,
2013-05-19 16:11:00,71.6,29.7,29.85,SE,130,3.0,5.4,21,0.00,,,-99.99,FreeWX 2.04,2013-05-19 20:11:00,
2013-05-19 16:16:00,72.1,31.1,29.85,SSE,148,2.0,4.0,22,0.00,,,-99.99,FreeWX 2.04,2013-05-19 20:16:00,
2013-05-19 16:21:00,73.6,31.3,29.85,South,174,1.0,4.5,21,0.00,,,-99.99,FreeWX 2.04,2013-05-19 20:21:00,
2013-05-19 16:26:00,74.1,27.9,29.85,South,189,2.0,6.3,18,0.00,,,-99.99,FreeWX 2.04,2013-05-19 20:26:00,
2013-05-19 16:31:00,74.3,28.0,29.85,SSW,198,1.0,4.0,18,0.00,,,-99.99,FreeWX 2.04,2013-05-19 20:31:00,
2013-05-19 16:36:00,73.4,27.3,29.85,South,175,1.0,5.4,18,0.00,,,-99.99,FreeWX 2.04,2013-05-19 20:36:00,
2013-05-19 16:41:00,73.4,27.3,29.85,SSE,149,2.0,4.5,18,0.00,,,-99.99,FreeWX 2.04,2013-05-19 20:41:00,
2013-05-19 16:46:00,73.8,27.7,29.85,SSE,151,2.0,4.5,18,0.00,,,-99.99,FreeWX 2.04,2013-05-19 20:46:00,
2013-05-19 16:51:00,73.6,27.5,29.85,SE,140,2.0,4.5,18,0.00,,,-99.99,FreeWX 2.04,2013-05-19 20:51:00,
2013-05-19 16:56:00,72.1,30.0,29.85,SE,127,2.0,4.5,21,0.00,,,-99.99,FreeWX 2.04,2013-05-19 20:56:00,
2013-05-19 17:01:00,72.1,30.0,29.85,SE,132,2.0,5.4,21,0.00,,,-99.99,FreeWX 2.04,2013-05-19 21:01:00,
2013-05-19 17:06:00,72.5,31.5,29.82,SE,136,2.0,4.9,22,0.00,,,-99.99,FreeWX 2.04,2013-05-19 21:06:00,
2013-05-19 17:11:00,72.9,30.6,29.82,SE,136,2.0,4.9,21,0.00,,,-99.99,FreeWX 2.04,2013-05-19 21:11:00,
2013-05-19 17:16:00,72.7,30.6,29.82,North,-999,0.0,3.6,21,0.00,,,-99.99,FreeWX 2.04,2013-05-19 21:16:00,
2013-05-19 17:21:00,72.9,30.6,29.82,SSW,212,1.0,4.0,21,0.00,,,-99.99,FreeWX 2.04,2013-05-19 21:21:00,
2013-05-19 17:26:00,73.0,30.7,29.82,SW,221,1.0,3.1,21,0.00,,,-99.99,FreeWX 2.04,2013-05-19 21:26:00,
2013-05-19 17:31:00,73.0,30.7,29.82,North,-999,0.0,4.9,21,0.00,,,-99.99,FreeWX 2.04,2013-05-19 21:31:00,
2013-05-19 17:36:00,72.7,30.6,29.82,North,-999,0.0,4.0,21,0.00,,,-99.99,FreeWX 2.04,2013-05-19 21:36:00,
2013-05-19 17:41:00,72.7,30.6,29.82,North,-999,0.0,4.5,21,0.00,,,-99.99,FreeWX 2.04,2013-05-19 21:41:00,
2013-05-19 17:46:00,73.2,30.9,29.82,SSW,202,1.0,4.5,21,0.00,,,-99.99,FreeWX 2.04,2013-05-19 21:46:00,
2013-05-19 17:51:00,73.0,30.7,29.82,South,182,1.0,4.5,21,0.00,,,-99.99,FreeWX 2.04,2013-05-19 21:51:00,
2013-05-19 17:56:00,72.9,30.6,29.82,South,178,1.0,4.5,21,0.00,,,-99.99,FreeWX 2.04,2013-05-19 21:56:00,
2013-05-19 18:01:00,72.3,31.3,29.82,SSE,152,1.0,4.5,22,0.00,,,-99.99,FreeWX 2.04,2013-05-19 22:01:00,
2013-05-19 18:06:00,71.4,30.6,29.82,SE,130,1.0,5.4,22,0.00,,,-99.99,FreeWX 2.04,2013-05-19 22:06:00,
2013-05-19 18:11:00,70.7,31.1,29.82,SE,136,1.0,4.5,23,0.00,,,-99.99,FreeWX 2.04,2013-05-19 22:11:00,
2013-05-19 18:16:00,70.7,31.1,29.82,SE,140,1.0,3.1,23,0.00,,,-99.99,FreeWX 2.04,2013-05-19 22:16:00,
2013-05-19 18:21:00,70.3,30.7,29.82,North,-999,0.0,0.0,23,0.00,,,-99.99,FreeWX 2.04,2013-05-19 22:21:00,
2013-05-19 18:26:00,69.4,30.0,29.82,North,-999,0.0,3.6,23,0.00,,,-99.99,FreeWX 2.04,2013-05-19 22:26:00,
2013-05-19 18:31:00,68.7,30.4,29.82,North,-999,0.0,0.0,24,0.00,,,-99.99,FreeWX 2.04,2013-05-19 22:31:00,
2013-05-19 18:36:00,68.0,30.9,29.82,North,-999,0.0,0.0,25,0.00,,,-99.99,FreeWX 2.04,2013-05-19 22:36:00,
2013-05-19 18:41:00,68.0,31.8,29.82,North,-999,0.0,0.0,26,0.00,,,-99.99,FreeWX 2.04,2013-05-19 22:41:00,
2013-05-19 18:46:00,68.2,32.9,29.82,North,-999,0.0,0.0,27,0.00,,,-99.99,FreeWX 2.04,2013-05-19 22:46:00,
2013-05-19 18:51:00,68.0,31.8,29.79,North,-999,0.0,0.0,26,0.00,,,-99.99,FreeWX 2.04,2013-05-19 22:51:00,
2013-05-19 18:56:00,67.8,32.5,29.79,North,-999,0.0,0.0,27,0.00,,,-99.99,FreeWX 2.04,2013-05-19 22:56:00,
2013-05-19 19:01:00,67.3,33.1,29.79,North,-999,0.0,0.0,28,0.00,,,-99.99,FreeWX 2.04,2013-05-19 23:01:00,
2013-05-19 19:06:00,67.6,35.1,29.79,North,-999,0.0,0.0,30,0.00,,,-99.99,FreeWX 2.04,2013-05-19 23:06:00,
2013-05-19 19:11:00,67.5,33.3,29.79,North,-999,0.0,0.0,28,0.00,,,-99.99,FreeWX 2.04,2013-05-19 23:11:00,
2013-05-19 19:16:00,67.1,33.8,29.79,North,-999,0.0,0.0,29,0.00,,,-99.99,FreeWX 2.04,2013-05-19 23:16:00,
2013-05-19 19:21:00,67.5,34.2,29.79,North,-999,0.0,0.0,29,0.00,,,-99.99,FreeWX 2.04,2013-05-19 23:21:00,
2013-05-19 19:26:00,68.0,33.6,29.79,North,-999,0.0,3.6,28,0.00,,,-99.99,FreeWX 2.04,2013-05-19 23:26:00,
2013-05-19 19:31:00,66.4,32.4,29.79,SW,221,1.0,4.0,28,0.00,,,-99.99,FreeWX 2.04,2013-05-19 23:31:00,
2013-05-19 19:36:00,65.5,33.3,29.79,North,-999,0.0,2.7,30,0.00,,,-99.99,FreeWX 2.04,2013-05-19 23:36:00,
2013-05-19 19:41:00,64.8,34.2,29.79,North,-999,0.0,3.6,32,0.00,,,-99.99,FreeWX 2.04,2013-05-19 23:41:00,
2013-05-19 19:46:00,64.0,34.3,29.79,North,-999,0.0,4.5,33,0.00,,,-99.99,FreeWX 2.04,2013-05-19 23:46:00,
2013-05-19 19:51:00,63.7,34.0,29.79,North,-999,0.0,0.0,33,0.00,,,-99.99,FreeWX 2.04,2013-05-19 23:51:00,
2013-05-19 19:56:00,63.3,34.5,29.79,North,-999,0.0,0.0,34,0.00,,,-99.99,FreeWX 2.04,2013-05-19 23:56:00,
2013-05-19 20:01:00,63.0,34.2,29.79,North,-999,0.0,0.0,34,0.00,,,-99.99,FreeWX 2.04,2013-05-20 00:01:00,
2013-05-19 20:06:00,62.6,33.8,29.82,North,-999,0.0,0.0,34,0.00,,,-99.99,FreeWX 2.04,2013-05-20 00:06:00,
2013-05-19 20:11:00,62.2,33.4,29.82,North,-999,0.0,0.0,34,0.00,,,-99.99,FreeWX 2.04,2013-05-20 00:11:00,
2013-05-19 20:16:00,62.1,34.2,29.82,North,-999,0.0,0.0,35,0.00,,,-99.99,FreeWX 2.04,2013-05-20 00:16:00,
2013-05-19 20:21:00,61.7,33.1,29.82,North,-999,0.0,0.0,34,0.00,,,-99.99,FreeWX 2.04,2013-05-20 00:21:00,
2013-05-19 20:26:00,61.3,33.4,29.82,North,-999,0.0,0.0,35,0.00,,,-99.99,FreeWX 2.04,2013-05-20 00:26:00,
2013-05-19 20:31:00,61.2,33.3,29.82,North,-999,0.0,0.0,35,0.00,,,-99.99,FreeWX 2.04,2013-05-20 00:31:00,
2013-05-19 20:36:00,61.0,33.1,29.82,North,-999,0.0,0.0,35,0.00,,,-99.99,FreeWX 2.04,2013-05-20 00:36:00,
2013-05-19 20:41:00,60.6,32.9,29.82,North,-999,0.0,0.0,35,0.00,,,-99.99,FreeWX 2.04,2013-05-20 00:41:00,
2013-05-19 20:46:00,60.3,32.5,29.82,North,-999,0.0,0.0,35,0.00,,,-99.99,FreeWX 2.04,2013-05-20 00:46:00,
2013-05-19 20:51:00,59.9,32.9,29.82,North,-999,0.0,0.0,36,0.00,,,-99.99,FreeWX 2.04,2013-05-20 00:51:00,
2013-05-19 20:56:00,59.7,33.4,29.82,North,-999,0.0,0.0,37,0.00,,,-99.99,FreeWX 2.04,2013-05-20 00:56:00,
2013-05-19 21:01:00,59.4,34.3,29.82,North,-999,0.0,0.0,39,0.00,,,-99.99,FreeWX 2.04,2013-05-20 01:01:00,
2013-05-19 21:06:00,59.2,35.4,29.82,North,-999,0.0,4.0,41,0.00,,,-99.99,FreeWX 2.04,2013-05-20 01:06:00,
2013-05-19 21:11:00,58.5,36.0,29.82,East,97,1.0,4.0,43,0.00,,,-99.99,FreeWX 2.04,2013-05-20 01:11:00,
2013-05-19 21:16:00,57.9,36.7,29.82,East,89,1.0,3.1,45,0.00,,,-99.99,FreeWX 2.04,2013-05-20 01:16:00,
2013-05-19 21:21:00,57.4,36.1,29.82,North,-999,0.0,3.1,45,0.00,,,-99.99,FreeWX 2.04,2013-05-20 01:21:00,
2013-05-19 21:26:00,57.2,36.7,29.82,North,-999,0.0,0.0,46,0.00,,,-99.99,FreeWX 2.04,2013-05-20 01:26:00,
2013-05-19 21:31:00,57.0,37.0,29.82,North,-999,0.0,4.0,47,0.00,,,-99.99,FreeWX 2.04,2013-05-20 01:31:00,
2013-05-19 21:36:00,56.7,37.2,29.82,ENE,76,2.0,5.8,48,0.00,,,-99.99,FreeWX 2.04,2013-05-20 01:36:00,
2013-05-19 21:41:00,56.5,37.6,29.82,East,94,2.0,4.5,49,0.00,,,-99.99,FreeWX 2.04,2013-05-20 01:41:00,
2013-05-19 21:46:00,56.1,38.3,29.82,ESE,112,1.0,4.9,51,0.00,,,-99.99,FreeWX 2.04,2013-05-20 01:46:00,
2013-05-19 21:51:00,55.8,37.9,29.82,East,96,1.0,3.6,51,0.00,,,-99.99,FreeWX 2.04,2013-05-20 01:51:00,
2013-05-19 21:56:00,55.2,37.9,29.82,East,93,2.0,4.5,52,0.00,,,-99.99,FreeWX 2.04,2013-05-20 01:56:00,
2013-05-19 22:01:00,54.9,37.6,29.82,East,93,2.0,4.0,52,0.00,,,-99.99,FreeWX 2.04,2013-05-20 02:01:00,
2013-05-19 22:06:00,54.5,37.8,29.82,East,86,2.0,5.4,53,0.00,,,-99.99,FreeWX 2.04,2013-05-20 02:06:00,
2013-05-19 22:11:00,54.3,38.1,29.82,East,84,3.0,6.3,54,0.00,,,-99.99,FreeWX 2.04,2013-05-20 02:11:00,
2013-05-19 22:16:00,54.1,38.3,29.82,East,82,2.0,5.4,55,0.00,,,-99.99,FreeWX 2.04,2013-05-20 02:16:00,
2013-05-19 22:21:00,53.8,37.9,29.82,East,85,2.0,6.7,55,0.00,,,-99.99,FreeWX 2.04,2013-05-20 02:21:00,